Kansas City, MO (64101)

3:19 AM CDT on July 25, 2016 (GMT -0500)
Midtown Hospital Hill | | Change Station

Elev 984 ft 39.08 °N, 94.58 °W | Updated 10 minutes ago

Thunderstorm
Thunderstorm
73.8 °F
Feels Like 72 °F
N
0.0
Wind Variable Wind from ESE

Today
High -- | Low -- °F
--% Chance of Precip.
Yesterday
High -- | Low -- °F
Precip. -- in
Pressure 29.96 in
Visibility 10.0 miles
Clouds Few 2600 ft
Scattered Clouds 6000 ft
Heat Index 72 °F
Dew Point 71 °F
Humidity 91%
Rainfall 0.47 in
Snow Depth Not available.
6:13 AM 8:36 PM
Waning Gibbous, 68% visible
METAR KMKC 250754Z 03010KT 10SM TS FEW026 SCT060 25/22 A2999 RMK AO2 LTG DSNT E-SW RAB20E43 TSB26 SLP145 P0028 T02500222 $
Pressure 29.96 in
Visibility 10.0 miles
Clouds Few 2600 ft
Scattered Clouds 6000 ft
Heat Index 72 °F
Dew Point 71 °F
Humidity 91%
Rainfall 0.47 in
Snow Depth Not available.
6:13 AM 8:36 PM
Waning Gibbous, 68% visible
METAR KMKC 250754Z 03010KT 10SM TS FEW026 SCT060 25/22 A2999 RMK AO2 LTG DSNT E-SW RAB20E43 TSB26 SLP145 P0028 T02500222 $

10-Day Weather Forecast

Almanac

Astronomy

Jul. 25, 2016 Rise Set
Actual Time
Civil Twilight
Nautical Twilight
Astronomical Twilight
Moon
Length of Visible Light
Length of Day
Tomorrow will be .
, % of the Moon is Illuminated

Today's Extremes

State Highs State Lows

Community

WunderPhotos

Upload Photos

1,927,274 photos uploaded!

WunderBlog® & News

Nearby

Air Quality

  Air Quality AQ Index Pollutant
Not available.

Snow Depth

Station Depth Elevation

Earthquake Activity

City Distance Mag. Time & Date
Minimum magnitude displayed is 2.5.

Coastal Water Temperatures

Place Temperature

Stations

Nearby Weather Stations

Station Location Temp. Windchill Dew Point Humidity Wind Precip. Elev Updated Type
                   

Watches & Warnings

There are currently no watches in effect.